sensor_id;sensor_type;location;lat;lon;timestamp;temperature;humidity
17148;DHT22;8689;47.364;8.796;2023-06-14T00:00:33;14.90;50.20
17148;DHT22;8689;47.364;8.796;2023-06-14T00:04:08;14.90;49.90
17148;DHT22;8689;47.364;8.796;2023-06-14T00:06:38;14.80;50.00
17148;DHT22;8689;47.364;8.796;2023-06-14T00:09:34;14.80;50.00
17148;DHT22;8689;47.364;8.796;2023-06-14T00:12:56;14.80;50.20
17148;DHT22;8689;47.364;8.796;2023-06-14T00:16:04;14.70;50.40
17148;DHT22;8689;47.364;8.796;2023-06-14T00:22:13;14.50;51.10
17148;DHT22;8689;47.364;8.796;2023-06-14T00:25:03;14.40;51.80
17148;DHT22;8689;47.364;8.796;2023-06-14T00:31:52;14.40;51.50
17148;DHT22;8689;47.364;8.796;2023-06-14T00:35:08;14.40;51.40
17148;DHT22;8689;47.364;8.796;2023-06-14T00:37:51;14.30;51.50
17148;DHT22;8689;47.364;8.796;2023-06-14T00:40:29;14.30;51.60
17148;DHT22;8689;47.364;8.796;2023-06-14T00:46:35;14.30;52.20
17148;DHT22;8689;47.364;8.796;2023-06-14T00:49:18;14.20;52.00
17148;DHT22;8689;47.364;8.796;2023-06-14T00:54:41;14.20;51.80
17148;DHT22;8689;47.364;8.796;2023-06-14T00:58:38;14.20;52.00
17148;DHT22;8689;47.364;8.796;2023-06-14T01:01:21;14.20;52.60
17148;DHT22;8689;47.364;8.796;2023-06-14T01:04:17;14.10;52.40
17148;DHT22;8689;47.364;8.796;2023-06-14T01:06:58;14.00;52.60
17148;DHT22;8689;47.364;8.796;2023-06-14T01:09:58;13.90;52.90
17148;DHT22;8689;47.364;8.796;2023-06-14T01:13:34;13.80;53.00
17148;DHT22;8689;47.364;8.796;2023-06-14T01:16:12;13.70;53.30
17148;DHT22;8689;47.364;8.796;2023-06-14T01:18:52;13.60;55.10
17148;DHT22;8689;47.364;8.796;2023-06-14T01:21:44;13.40;55.40
17148;DHT22;8689;47.364;8.796;2023-06-14T01:25:05;13.20;55.20
17148;DHT22;8689;47.364;8.796;2023-06-14T01:27:52;13.00;57.60
17148;DHT22;8689;47.364;8.796;2023-06-14T01:30:40;12.80;57.40
17148;DHT22;8689;47.364;8.796;2023-06-14T01:33:26;12.60;57.90
17148;DHT22;8689;47.364;8.796;2023-06-14T01:36:09;12.50;59.30
17148;DHT22;8689;47.364;8.796;2023-06-14T01:39:21;12.30;59.10
17148;DHT22;8689;47.364;8.796;2023-06-14T01:42:29;12.20;61.30
17148;DHT22;8689;47.364;8.796;2023-06-14T01:45:14;12.00;62.00
17148;DHT22;8689;47.364;8.796;2023-06-14T01:48:13;11.80;62.70
17148;DHT22;8689;47.364;8.796;2023-06-14T01:51:22;11.60;64.30
17148;DHT22;8689;47.364;8.796;2023-06-14T01:54:07;11.40;64.80
17148;DHT22;8689;47.364;8.796;2023-06-14T01:56:38;11.30;65.10
17148;DHT22;8689;47.364;8.796;2023-06-14T01:59:13;11.20;65.00
17148;DHT22;8689;47.364;8.796;2023-06-14T02:01:41;11.10;65.20
17148;DHT22;8689;47.364;8.796;2023-06-14T02:04:14;11.10;65.50
17148;DHT22;8689;47.364;8.796;2023-06-14T02:06:47;11.00;64.80
17148;DHT22;8689;47.364;8.796;2023-06-14T02:09:16;11.00;64.80
17148;DHT22;8689;47.364;8.796;2023-06-14T02:12:28;11.00;65.90
17148;DHT22;8689;47.364;8.796;2023-06-14T02:15:13;11.00;65.60
17148;DHT22;8689;47.364;8.796;2023-06-14T02:17:53;11.10;65.90
17148;DHT22;8689;47.364;8.796;2023-06-14T02:20:25;11.10;64.80
17148;DHT22;8689;47.364;8.796;2023-06-14T02:22:52;11.10;64.90
17148;DHT22;8689;47.364;8.796;2023-06-14T02:25:28;11.10;64.90
17148;DHT22;8689;47.364;8.796;2023-06-14T02:27:57;11.10;64.90
17148;DHT22;8689;47.364;8.796;2023-06-14T02:30:26;11.10;65.80
17148;DHT22;8689;47.364;8.796;2023-06-14T02:32:54;11.10;66.00
17148;DHT22;8689;47.364;8.796;2023-06-14T02:35:22;11.10;64.90
17148;DHT22;8689;47.364;8.796;2023-06-14T02:37:52;11.20;65.00
17148;DHT22;8689;47.364;8.796;2023-06-14T02:40:20;11.20;65.00
17148;DHT22;8689;47.364;8.796;2023-06-14T02:42:48;11.20;64.00
17148;DHT22;8689;47.364;8.796;2023-06-14T02:45:18;11.20;63.80
17148;DHT22;8689;47.364;8.796;2023-06-14T02:48:09;11.30;64.20
17148;DHT22;8689;47.364;8.796;2023-06-14T02:50:36;11.40;64.50
17148;DHT22;8689;47.364;8.796;2023-06-14T02:53:04;11.30;65.10
17148;DHT22;8689;47.364;8.796;2023-06-14T02:55:35;11.20;65.00
17148;DHT22;8689;47.364;8.796;2023-06-14T02:58:05;11.00;65.90
17148;DHT22;8689;47.364;8.796;2023-06-14T03:00:35;10.90;66.80
17148;DHT22;8689;47.364;8.796;2023-06-14T03:03:06;10.70;67.40
17148;DHT22;8689;47.364;8.796;2023-06-14T03:05:48;10.60;67.50
17148;DHT22;8689;47.364;8.796;2023-06-14T03:08:32;10.50;68.10
17148;DHT22;8689;47.364;8.796;2023-06-14T03:11:04;10.40;68.10
17148;DHT22;8689;47.364;8.796;2023-06-14T03:13:34;10.40;68.20
17148;DHT22;8689;47.364;8.796;2023-06-14T03:16:03;10.40;68.90
17148;DHT22;8689;47.364;8.796;2023-06-14T03:18:34;10.30;68.80
17148;DHT22;8689;47.364;8.796;2023-06-14T03:21:03;10.40;68.50
17148;DHT22;8689;47.364;8.796;2023-06-14T03:23:30;10.40;69.30
17148;DHT22;8689;47.364;8.796;2023-06-14T03:25:58;10.30;68.50
17148;DHT22;8689;47.364;8.796;2023-06-14T03:28:26;10.30;69.10
17148;DHT22;8689;47.364;8.796;2023-06-14T03:30:53;10.30;68.70
17148;DHT22;8689;47.364;8.796;2023-06-14T03:33:21;10.30;69.40
17148;DHT22;8689;47.364;8.796;2023-06-14T03:35:50;10.30;70.30
17148;DHT22;8689;47.364;8.796;2023-06-14T03:38:19;10.30;69.00
17148;DHT22;8689;47.364;8.796;2023-06-14T03:40:47;10.30;69.20
17148;DHT22;8689;47.364;8.796;2023-06-14T03:43:15;10.30;68.90
17148;DHT22;8689;47.364;8.796;2023-06-14T03:45:44;10.40;68.60
17148;DHT22;8689;47.364;8.796;2023-06-14T03:48:11;10.40;67.70
17148;DHT22;8689;47.364;8.796;2023-06-14T03:50:39;10.50;67.70
17148;DHT22;8689;47.364;8.796;2023-06-14T03:53:10;10.60;67.80
17148;DHT22;8689;47.364;8.796;2023-06-14T03:55:37;10.50;67.80
17148;DHT22;8689;47.364;8.796;2023-06-14T03:58:05;10.60;69.00
17148;DHT22;8689;47.364;8.796;2023-06-14T04:00:32;10.60;68.60
17148;DHT22;8689;47.364;8.796;2023-06-14T04:03:03;10.50;69.10
17148;DHT22;8689;47.364;8.796;2023-06-14T04:05:31;10.40;69.40
17148;DHT22;8689;47.364;8.796;2023-06-14T04:08:02;10.30;70.00
17148;DHT22;8689;47.364;8.796;2023-06-14T04:10:31;10.30;70.10
17148;DHT22;8689;47.364;8.796;2023-06-14T04:12:59;10.30;70.20
17148;DHT22;8689;47.364;8.796;2023-06-14T04:15:30;10.30;70.80
17148;DHT22;8689;47.364;8.796;2023-06-14T04:18:07;10.40;70.20
17148;DHT22;8689;47.364;8.796;2023-06-14T04:20:37;10.40;70.40
17148;DHT22;8689;47.364;8.796;2023-06-14T04:23:17;10.40;70.30
17148;DHT22;8689;47.364;8.796;2023-06-14T04:25:47;10.40;70.60
17148;DHT22;8689;47.364;8.796;2023-06-14T04:28:15;10.50;69.50
17148;DHT22;8689;47.364;8.796;2023-06-14T04:30:43;10.50;70.30
17148;DHT22;8689;47.364;8.796;2023-06-14T04:33:10;10.40;70.20
17148;DHT22;8689;47.364;8.796;2023-06-14T04:35:40;10.40;70.90
17148;DHT22;8689;47.364;8.796;2023-06-14T04:38:16;10.40;70.80
17148;DHT22;8689;47.364;8.796;2023-06-14T04:43:57;10.50;71.90
17148;DHT22;8689;47.364;8.796;2023-06-14T04:46:27;10.50;71.90
17148;DHT22;8689;47.364;8.796;2023-06-14T04:48:55;10.50;71.60
17148;DHT22;8689;47.364;8.796;2023-06-14T04:51:23;10.50;72.40
17148;DHT22;8689;47.364;8.796;2023-06-14T04:53:55;10.70;70.70
17148;DHT22;8689;47.364;8.796;2023-06-14T04:56:25;10.90;69.60
17148;DHT22;8689;47.364;8.796;2023-06-14T04:58:52;11.10;69.30
17148;DHT22;8689;47.364;8.796;2023-06-14T05:01:22;11.20;68.40
17148;DHT22;8689;47.364;8.796;2023-06-14T05:07:21;11.60;68.20
17148;DHT22;8689;47.364;8.796;2023-06-14T05:10:24;11.70;68.60
17148;DHT22;8689;47.364;8.796;2023-06-14T05:12:57;11.80;67.30
17148;DHT22;8689;47.364;8.796;2023-06-14T05:15:24;12.00;66.70
17148;DHT22;8689;47.364;8.796;2023-06-14T05:17:54;12.20;66.70
17148;DHT22;8689;47.364;8.796;2023-06-14T05:20:21;12.30;67.40
17148;DHT22;8689;47.364;8.796;2023-06-14T05:22:51;12.30;67.80
17148;DHT22;8689;47.364;8.796;2023-06-14T05:25:19;12.30;68.60
17148;DHT22;8689;47.364;8.796;2023-06-14T05:27:47;12.40;67.80
17148;DHT22;8689;47.364;8.796;2023-06-14T05:30:27;12.50;67.80
17148;DHT22;8689;47.364;8.796;2023-06-14T05:32:56;12.60;67.80
17148;DHT22;8689;47.364;8.796;2023-06-14T05:35:24;12.70;67.50
17148;DHT22;8689;47.364;8.796;2023-06-14T05:37:52;12.90;67.80
17148;DHT22;8689;47.364;8.796;2023-06-14T05:40:32;13.00;68.20
17148;DHT22;8689;47.364;8.796;2023-06-14T05:43:01;13.10;67.90
17148;DHT22;8689;47.364;8.796;2023-06-14T05:45:30;13.30;67.20
17148;DHT22;8689;47.364;8.796;2023-06-14T05:47:58;13.90;66.00
17148;DHT22;8689;47.364;8.796;2023-06-14T05:50:25;14.70;63.20
17148;DHT22;8689;47.364;8.796;2023-06-14T05:52:53;15.80;60.50
17148;DHT22;8689;47.364;8.796;2023-06-14T05:55:24;16.50;59.00
17148;DHT22;8689;47.364;8.796;2023-06-14T05:57:54;17.30;59.40
17148;DHT22;8689;47.364;8.796;2023-06-14T06:00:21;17.90;57.00
17148;DHT22;8689;47.364;8.796;2023-06-14T06:02:49;18.50;55.00
17148;DHT22;8689;47.364;8.796;2023-06-14T06:05:17;18.70;50.90
17148;DHT22;8689;47.364;8.796;2023-06-14T06:07:44;18.90;51.70
17148;DHT22;8689;47.364;8.796;2023-06-14T06:10:11;19.20;51.20
17148;DHT22;8689;47.364;8.796;2023-06-14T06:12:40;19.60;50.10
17148;DHT22;8689;47.364;8.796;2023-06-14T06:15:09;19.90;51.80
17148;DHT22;8689;47.364;8.796;2023-06-14T06:17:38;20.10;51.30
17148;DHT22;8689;47.364;8.796;2023-06-14T06:20:12;20.10;49.80
17148;DHT22;8689;47.364;8.796;2023-06-14T06:22:41;20.20;48.90
17148;DHT22;8689;47.364;8.796;2023-06-14T06:25:22;20.30;49.30
17148;DHT22;8689;47.364;8.796;2023-06-14T06:27:52;20.40;49.80
17148;DHT22;8689;47.364;8.796;2023-06-14T06:30:20;20.60;50.60
17148;DHT22;8689;47.364;8.796;2023-06-14T06:33:02;20.80;49.50
17148;DHT22;8689;47.364;8.796;2023-06-14T06:35:32;21.00;48.10
17148;DHT22;8689;47.364;8.796;2023-06-14T06:38:00;21.10;48.50
17148;DHT22;8689;47.364;8.796;2023-06-14T06:40:28;21.20;48.30
17148;DHT22;8689;47.364;8.796;2023-06-14T06:43:06;21.50;49.60
17148;DHT22;8689;47.364;8.796;2023-06-14T06:45:33;21.50;48.10
17148;DHT22;8689;47.364;8.796;2023-06-14T06:48:02;21.60;47.50
17148;DHT22;8689;47.364;8.796;2023-06-14T06:50:30;21.50;47.30
17148;DHT22;8689;47.364;8.796;2023-06-14T06:52:58;21.40;48.20
17148;DHT22;8689;47.364;8.796;2023-06-14T06:55:26;21.50;47.90
17148;DHT22;8689;47.364;8.796;2023-06-14T06:57:54;21.60;48.70
17148;DHT22;8689;47.364;8.796;2023-06-14T07:00:23;21.70;47.60
17148;DHT22;8689;47.364;8.796;2023-06-14T07:02:53;21.90;48.60
17148;DHT22;8689;47.364;8.796;2023-06-14T07:05:23;22.10;47.20
17148;DHT22;8689;47.364;8.796;2023-06-14T07:07:50;22.30;47.50
17148;DHT22;8689;47.364;8.796;2023-06-14T07:10:30;22.40;47.20
17148;DHT22;8689;47.364;8.796;2023-06-14T07:12:58;22.60;48.00
17148;DHT22;8689;47.364;8.796;2023-06-14T07:15:26;22.80;46.10
17148;DHT22;8689;47.364;8.796;2023-06-14T07:18:04;22.90;45.60
17148;DHT22;8689;47.364;8.796;2023-06-14T07:20:54;23.20;45.90
17148;DHT22;8689;47.364;8.796;2023-06-14T07:23:23;23.30;44.00
17148;DHT22;8689;47.364;8.796;2023-06-14T07:26:04;23.40;40.80
17148;DHT22;8689;47.364;8.796;2023-06-14T07:28:40;23.50;40.30
17148;DHT22;8689;47.364;8.796;2023-06-14T07:31:23;23.50;40.00
17148;DHT22;8689;47.364;8.796;2023-06-14T07:34:05;23.50;38.60
17148;DHT22;8689;47.364;8.796;2023-06-14T07:36:33;23.50;39.50
17148;DHT22;8689;47.364;8.796;2023-06-14T07:39:11;23.60;43.60
17148;DHT22;8689;47.364;8.796;2023-06-14T07:41:41;23.90;43.70
17148;DHT22;8689;47.364;8.796;2023-06-14T07:47:13;24.20;43.50
17148;DHT22;8689;47.364;8.796;2023-06-14T07:49:46;24.30;40.20
17148;DHT22;8689;47.364;8.796;2023-06-14T07:52:15;24.40;40.60
17148;DHT22;8689;47.364;8.796;2023-06-14T07:54:55;24.40;38.50
17148;DHT22;8689;47.364;8.796;2023-06-14T07:57:25;24.60;37.10
17148;DHT22;8689;47.364;8.796;2023-06-14T07:59:53;24.70;39.40
17148;DHT22;8689;47.364;8.796;2023-06-14T08:02:21;24.80;36.90
17148;DHT22;8689;47.364;8.796;2023-06-14T08:04:48;24.90;37.40
17148;DHT22;8689;47.364;8.796;2023-06-14T08:07:18;25.10;36.10
17148;DHT22;8689;47.364;8.796;2023-06-14T08:09:46;25.30;36.20
17148;DHT22;8689;47.364;8.796;2023-06-14T08:12:14;25.20;35.60
17148;DHT22;8689;47.364;8.796;2023-06-14T08:15:10;25.20;35.60
17148;DHT22;8689;47.364;8.796;2023-06-14T08:23:31;25.70;34.60
17148;DHT22;8689;47.364;8.796;2023-06-14T08:26:10;25.70;34.00
17148;DHT22;8689;47.364;8.796;2023-06-14T08:28:58;25.80;36.00
17148;DHT22;8689;47.364;8.796;2023-06-14T08:38:03;25.70;34.30
17148;DHT22;8689;47.364;8.796;2023-06-14T08:41:06;25.60;35.10
17148;DHT22;8689;47.364;8.796;2023-06-14T08:58:11;26.00;35.40
17148;DHT22;8689;47.364;8.796;2023-06-14T09:01:34;25.50;34.80
17148;DHT22;8689;47.364;8.796;2023-06-14T09:04:46;25.70;37.30
17148;DHT22;8689;47.364;8.796;2023-06-14T09:07:34;26.00;37.40
17148;DHT22;8689;47.364;8.796;2023-06-14T09:10:10;26.10;35.50
17148;DHT22;8689;47.364;8.796;2023-06-14T09:13:06;26.10;36.70
17148;DHT22;8689;47.364;8.796;2023-06-14T09:16:41;25.90;37.10
17148;DHT22;8689;47.364;8.796;2023-06-14T09:19:22;25.80;37.40
17148;DHT22;8689;47.364;8.796;2023-06-14T09:22:07;25.60;37.90
17148;DHT22;8689;47.364;8.796;2023-06-14T09:24:56;26.00;37.50
17148;DHT22;8689;47.364;8.796;2023-06-14T09:27:29;26.00;37.50
17148;DHT22;8689;47.364;8.796;2023-06-14T09:30:15;26.00;37.40
17148;DHT22;8689;47.364;8.796;2023-06-14T09:32:47;26.00;36.10
17148;DHT22;8689;47.364;8.796;2023-06-14T09:35:18;26.00;37.90
17148;DHT22;8689;47.364;8.796;2023-06-14T09:37:45;26.30;38.60
17148;DHT22;8689;47.364;8.796;2023-06-14T09:40:20;26.50;36.20
17148;DHT22;8689;47.364;8.796;2023-06-14T09:42:48;26.60;38.10
17148;DHT22;8689;47.364;8.796;2023-06-14T09:45:15;26.50;36.40
17148;DHT22;8689;47.364;8.796;2023-06-14T09:47:49;26.60;36.50
17148;DHT22;8689;47.364;8.796;2023-06-14T09:50:17;26.80;37.60
17148;DHT22;8689;47.364;8.796;2023-06-14T09:52:52;27.00;37.90
17148;DHT22;8689;47.364;8.796;2023-06-14T09:55:31;26.80;36.20
17148;DHT22;8689;47.364;8.796;2023-06-14T09:58:04;26.30;36.30
17148;DHT22;8689;47.364;8.796;2023-06-14T10:00:46;26.20;36.30
17148;DHT22;8689;47.364;8.796;2023-06-14T10:06:57;26.10;37.00
17148;DHT22;8689;47.364;8.796;2023-06-14T10:09:40;26.50;37.10
17148;DHT22;8689;47.364;8.796;2023-06-14T10:12:37;26.50;35.50
17148;DHT22;8689;47.364;8.796;2023-06-14T10:15:38;26.80;36.00
17148;DHT22;8689;47.364;8.796;2023-06-14T10:18:17;26.90;36.70
17148;DHT22;8689;47.364;8.796;2023-06-14T10:20:55;26.80;35.60
17148;DHT22;8689;47.364;8.796;2023-06-14T10:23:29;26.70;34.50
17148;DHT22;8689;47.364;8.796;2023-06-14T10:26:08;26.50;36.00
17148;DHT22;8689;47.364;8.796;2023-06-14T10:28:38;26.80;36.60
17148;DHT22;8689;47.364;8.796;2023-06-14T10:31:06;27.00;34.60
17148;DHT22;8689;47.364;8.796;2023-06-14T10:33:49;27.00;34.90
17148;DHT22;8689;47.364;8.796;2023-06-14T10:36:31;27.40;35.30
17148;DHT22;8689;47.364;8.796;2023-06-14T10:44:55;27.70;34.40
17148;DHT22;8689;47.364;8.796;2023-06-14T10:47:40;27.90;34.40
17148;DHT22;8689;47.364;8.796;2023-06-14T10:50:09;28.00;33.20
17148;DHT22;8689;47.364;8.796;2023-06-14T10:52:41;27.40;33.70
17148;DHT22;8689;47.364;8.796;2023-06-14T10:55:10;27.40;34.90
17148;DHT22;8689;47.364;8.796;2023-06-14T10:57:39;27.40;32.10
17148;DHT22;8689;47.364;8.796;2023-06-14T11:00:10;27.60;32.80
17148;DHT22;8689;47.364;8.796;2023-06-14T11:05:49;28.50;30.90
17148;DHT22;8689;47.364;8.796;2023-06-14T11:11:51;28.50;31.70
17148;DHT22;8689;47.364;8.796;2023-06-14T11:14:20;28.70;30.70
17148;DHT22;8689;47.364;8.796;2023-06-14T11:16:52;28.60;30.60
17148;DHT22;8689;47.364;8.796;2023-06-14T11:19:21;28.30;32.00
17148;DHT22;8689;47.364;8.796;2023-06-14T11:21:50;28.10;30.70
17148;DHT22;8689;47.364;8.796;2023-06-14T11:24:18;27.90;31.60
17148;DHT22;8689;47.364;8.796;2023-06-14T11:26:47;28.00;34.30
17148;DHT22;8689;47.364;8.796;2023-06-14T11:29:15;28.50;33.90
17148;DHT22;8689;47.364;8.796;2023-06-14T11:31:44;28.30;31.40
17148;DHT22;8689;47.364;8.796;2023-06-14T11:35:00;28.60;32.00
17148;DHT22;8689;47.364;8.796;2023-06-14T11:37:36;28.80;32.10
17148;DHT22;8689;47.364;8.796;2023-06-14T11:40:08;28.70;30.40
17148;DHT22;8689;47.364;8.796;2023-06-14T11:42:35;29.10;32.30
17148;DHT22;8689;47.364;8.796;2023-06-14T11:45:04;29.10;30.40
17148;DHT22;8689;47.364;8.796;2023-06-14T11:47:32;29.00;31.00
17148;DHT22;8689;47.364;8.796;2023-06-14T11:50:01;29.10;32.70
17148;DHT22;8689;47.364;8.796;2023-06-14T11:52:28;28.80;29.90
17148;DHT22;8689;47.364;8.796;2023-06-14T11:54:56;29.00;30.60
17148;DHT22;8689;47.364;8.796;2023-06-14T11:57:24;29.10;32.40
17148;DHT22;8689;47.364;8.796;2023-06-14T11:59:52;29.60;30.80
17148;DHT22;8689;47.364;8.796;2023-06-14T12:02:22;30.00;30.00
17148;DHT22;8689;47.364;8.796;2023-06-14T12:05:29;30.30;31.10
17148;DHT22;8689;47.364;8.796;2023-06-14T12:07:48;30.50;29.10
17148;DHT22;8689;47.364;8.796;2023-06-14T12:10:19;30.70;29.10
17148;DHT22;8689;47.364;8.796;2023-06-14T12:13:13;30.60;29.90
17148;DHT22;8689;47.364;8.796;2023-06-14T12:16:12;30.90;29.90
17148;DHT22;8689;47.364;8.796;2023-06-14T12:18:40;30.70;28.00
17148;DHT22;8689;47.364;8.796;2023-06-14T12:21:09;29.90;27.40
17148;DHT22;8689;47.364;8.796;2023-06-14T12:23:44;29.90;32.60
17148;DHT22;8689;47.364;8.796;2023-06-14T12:26:15;30.40;29.30
17148;DHT22;8689;47.364;8.796;2023-06-14T12:28:44;30.80;28.80
17148;DHT22;8689;47.364;8.796;2023-06-14T12:31:15;31.10;28.80
17148;DHT22;8689;47.364;8.796;2023-06-14T12:33:56;31.30;28.10
17148;DHT22;8689;47.364;8.796;2023-06-14T12:39:43;31.40;27.60
17148;DHT22;8689;47.364;8.796;2023-06-14T12:42:11;31.70;27.50
17148;DHT22;8689;47.364;8.796;2023-06-14T12:44:40;31.60;26.80
17148;DHT22;8689;47.364;8.796;2023-06-14T12:47:08;31.50;28.60
17148;DHT22;8689;47.364;8.796;2023-06-14T12:49:36;31.60;29.20
17148;DHT22;8689;47.364;8.796;2023-06-14T12:52:03;31.70;27.10
17148;DHT22;8689;47.364;8.796;2023-06-14T12:54:30;31.90;26.90
17148;DHT22;8689;47.364;8.796;2023-06-14T12:57:00;31.70;26.50
17148;DHT22;8689;47.364;8.796;2023-06-14T12:59:27;31.90;27.10
17148;DHT22;8689;47.364;8.796;2023-06-14T13:01:59;32.20;27.20
17148;DHT22;8689;47.364;8.796;2023-06-14T13:04:26;32.20;26.80
17148;DHT22;8689;47.364;8.796;2023-06-14T13:06:54;32.30;26.70
17148;DHT22;8689;47.364;8.796;2023-06-14T13:09:21;32.10;26.40
17148;DHT22;8689;47.364;8.796;2023-06-14T13:11:49;32.30;26.30
17148;DHT22;8689;47.364;8.796;2023-06-14T13:14:17;32.80;26.90
17148;DHT22;8689;47.364;8.796;2023-06-14T13:16:44;33.20;25.00
17148;DHT22;8689;47.364;8.796;2023-06-14T13:19:12;33.30;25.70
17148;DHT22;8689;47.364;8.796;2023-06-14T13:21:39;32.70;26.80
17148;DHT22;8689;47.364;8.796;2023-06-14T13:24:07;32.40;27.00
17148;DHT22;8689;47.364;8.796;2023-06-14T13:26:34;31.60;26.20
17148;DHT22;8689;47.364;8.796;2023-06-14T13:29:01;31.80;27.00
17148;DHT22;8689;47.364;8.796;2023-06-14T13:31:30;32.20;27.80
17148;DHT22;8689;47.364;8.796;2023-06-14T13:33:59;31.90;27.00
17148;DHT22;8689;47.364;8.796;2023-06-14T13:36:26;32.10;27.90
17148;DHT22;8689;47.364;8.796;2023-06-14T13:38:53;32.20;26.80
17148;DHT22;8689;47.364;8.796;2023-06-14T13:41:20;32.50;26.70
17148;DHT22;8689;47.364;8.796;2023-06-14T13:43:48;32.50;26.80
17148;DHT22;8689;47.364;8.796;2023-06-14T13:46:15;32.60;28.20
17148;DHT22;8689;47.364;8.796;2023-06-14T13:48:44;32.80;26.40
17148;DHT22;8689;47.364;8.796;2023-06-14T13:51:13;32.30;25.90
17148;DHT22;8689;47.364;8.796;2023-06-14T13:53:40;32.40;27.20
17148;DHT22;8689;47.364;8.796;2023-06-14T13:56:07;32.50;25.10
17148;DHT22;8689;47.364;8.796;2023-06-14T13:58:34;31.90;25.70
17148;DHT22;8689;47.364;8.796;2023-06-14T14:01:01;31.60;25.50
17148;DHT22;8689;47.364;8.796;2023-06-14T14:03:29;31.60;26.00
17148;DHT22;8689;47.364;8.796;2023-06-14T14:05:57;31.90;28.30
17148;DHT22;8689;47.364;8.796;2023-06-14T14:08:25;32.40;27.50
17148;DHT22;8689;47.364;8.796;2023-06-14T14:10:52;32.90;26.90
17148;DHT22;8689;47.364;8.796;2023-06-14T14:13:19;33.40;26.10
17148;DHT22;8689;47.364;8.796;2023-06-14T14:15:46;33.10;26.60
17148;DHT22;8689;47.364;8.796;2023-06-14T14:18:14;33.10;27.00
17148;DHT22;8689;47.364;8.796;2023-06-14T14:20:42;33.50;25.80
17148;DHT22;8689;47.364;8.796;2023-06-14T14:23:12;33.30;26.40
17148;DHT22;8689;47.364;8.796;2023-06-14T14:25:40;33.10;26.10
17148;DHT22;8689;47.364;8.796;2023-06-14T14:28:07;33.10;27.30
17148;DHT22;8689;47.364;8.796;2023-06-14T14:30:35;33.10;27.20
17148;DHT22;8689;47.364;8.796;2023-06-14T14:33:05;32.80;26.90
17148;DHT22;8689;47.364;8.796;2023-06-14T14:35:34;32.30;25.90
17148;DHT22;8689;47.364;8.796;2023-06-14T14:38:02;32.10;25.70
17148;DHT22;8689;47.364;8.796;2023-06-14T14:40:49;32.30;26.60
17148;DHT22;8689;47.364;8.796;2023-06-14T14:43:16;32.90;26.90
17148;DHT22;8689;47.364;8.796;2023-06-14T14:45:43;33.10;27.70
17148;DHT22;8689;47.364;8.796;2023-06-14T14:48:25;33.30;27.10
17148;DHT22;8689;47.364;8.796;2023-06-14T14:51:04;33.20;26.40
17148;DHT22;8689;47.364;8.796;2023-06-14T14:53:33;33.00;27.00
17148;DHT22;8689;47.364;8.796;2023-06-14T14:56:02;32.90;26.10
17148;DHT22;8689;47.364;8.796;2023-06-14T14:58:29;32.50;26.50
17148;DHT22;8689;47.364;8.796;2023-06-14T15:00:56;32.60;27.10
17148;DHT22;8689;47.364;8.796;2023-06-14T15:03:23;32.50;26.30
17148;DHT22;8689;47.364;8.796;2023-06-14T15:05:51;32.40;26.30
17148;DHT22;8689;47.364;8.796;2023-06-14T15:08:18;32.50;27.40
17148;DHT22;8689;47.364;8.796;2023-06-14T15:10:45;32.70;26.80
17148;DHT22;8689;47.364;8.796;2023-06-14T15:13:15;32.80;26.50
17148;DHT22;8689;47.364;8.796;2023-06-14T15:15:43;33.00;26.80
17148;DHT22;8689;47.364;8.796;2023-06-14T15:18:10;33.20;25.80
17148;DHT22;8689;47.364;8.796;2023-06-14T15:20:37;33.00;25.60
17148;DHT22;8689;47.364;8.796;2023-06-14T15:23:04;32.60;25.60
17148;DHT22;8689;47.364;8.796;2023-06-14T15:25:31;32.40;26.30
17148;DHT22;8689;47.364;8.796;2023-06-14T15:27:59;33.10;27.30
17148;DHT22;8689;47.364;8.796;2023-06-14T15:30:28;33.70;26.40
17148;DHT22;8689;47.364;8.796;2023-06-14T15:32:56;34.20;25.70
17148;DHT22;8689;47.364;8.796;2023-06-14T15:35:23;34.30;26.20
17148;DHT22;8689;47.364;8.796;2023-06-14T15:37:50;34.30;25.20
17148;DHT22;8689;47.364;8.796;2023-06-14T15:40:17;34.00;25.10
17148;DHT22;8689;47.364;8.796;2023-06-14T15:42:44;33.80;25.10
17148;DHT22;8689;47.364;8.796;2023-06-14T15:45:12;33.20;26.50
17148;DHT22;8689;47.364;8.796;2023-06-14T15:47:40;33.40;26.40
17148;DHT22;8689;47.364;8.796;2023-06-14T15:50:08;33.50;26.50
17148;DHT22;8689;47.364;8.796;2023-06-14T15:52:37;33.60;25.80
17148;DHT22;8689;47.364;8.796;2023-06-14T15:55:05;33.40;25.70
17148;DHT22;8689;47.364;8.796;2023-06-14T15:57:32;33.50;26.20
17148;DHT22;8689;47.364;8.796;2023-06-14T15:59:59;33.70;26.80
17148;DHT22;8689;47.364;8.796;2023-06-14T16:02:26;33.30;25.90
17148;DHT22;8689;47.364;8.796;2023-06-14T16:04:54;32.30;26.60
17148;DHT22;8689;47.364;8.796;2023-06-14T16:07:21;32.30;27.00
17148;DHT22;8689;47.364;8.796;2023-06-14T16:09:48;32.70;27.20
17148;DHT22;8689;47.364;8.796;2023-06-14T16:12:15;32.70;27.80
17148;DHT22;8689;47.364;8.796;2023-06-14T16:14:42;33.00;26.70
17148;DHT22;8689;47.364;8.796;2023-06-14T16:17:09;33.30;27.10
17148;DHT22;8689;47.364;8.796;2023-06-14T16:19:36;32.70;26.80
17148;DHT22;8689;47.364;8.796;2023-06-14T16:22:06;32.00;39.80
17148;DHT22;8689;47.364;8.796;2023-06-14T16:24:33;29.20;44.50
17148;DHT22;8689;47.364;8.796;2023-06-14T16:27:00;26.40;47.60
17148;DHT22;8689;47.364;8.796;2023-06-14T16:29:27;24.60;55.60
17148;DHT22;8689;47.364;8.796;2023-06-14T16:31:54;23.20;60.20
17148;DHT22;8689;47.364;8.796;2023-06-14T16:34:22;22.10;66.40
17148;DHT22;8689;47.364;8.796;2023-06-14T16:36:49;21.60;63.80
17148;DHT22;8689;47.364;8.796;2023-06-14T16:39:17;21.20;62.10
17148;DHT22;8689;47.364;8.796;2023-06-14T16:41:44;20.90;60.90
17148;DHT22;8689;47.364;8.796;2023-06-14T16:44:12;20.90;52.60
17148;DHT22;8689;47.364;8.796;2023-06-14T16:46:39;21.20;53.90
17148;DHT22;8689;47.364;8.796;2023-06-14T16:49:06;21.50;52.30
17148;DHT22;8689;47.364;8.796;2023-06-14T16:51:33;21.90;45.70
17148;DHT22;8689;47.364;8.796;2023-06-14T16:54:00;22.30;43.30
17148;DHT22;8689;47.364;8.796;2023-06-14T16:56:30;22.60;43.70
17148;DHT22;8689;47.364;8.796;2023-06-14T16:58:58;22.90;42.30
17148;DHT22;8689;47.364;8.796;2023-06-14T17:01:26;23.10;41.80
17148;DHT22;8689;47.364;8.796;2023-06-14T17:03:54;23.20;43.90
17148;DHT22;8689;47.364;8.796;2023-06-14T17:06:21;23.30;43.70
17148;DHT22;8689;47.364;8.796;2023-06-14T17:08:49;23.40;42.60
17148;DHT22;8689;47.364;8.796;2023-06-14T17:11:17;23.50;42.80
17148;DHT22;8689;47.364;8.796;2023-06-14T17:13:49;23.40;42.10
17148;DHT22;8689;47.364;8.796;2023-06-14T17:16:16;23.40;41.20
17148;DHT22;8689;47.364;8.796;2023-06-14T17:18:44;23.40;40.90
17148;DHT22;8689;47.364;8.796;2023-06-14T17:21:12;23.40;40.50
17148;DHT22;8689;47.364;8.796;2023-06-14T17:23:40;23.40;41.60
17148;DHT22;8689;47.364;8.796;2023-06-14T17:26:07;23.40;41.30
17148;DHT22;8689;47.364;8.796;2023-06-14T17:28:35;23.30;42.00
17148;DHT22;8689;47.364;8.796;2023-06-14T17:31:04;23.30;42.50
17148;DHT22;8689;47.364;8.796;2023-06-14T17:33:31;23.30;42.00
17148;DHT22;8689;47.364;8.796;2023-06-14T17:35:58;23.30;42.10